Trees, Louisiana
Current Conditions -  °F | °C
As of 7:53 AM on Friday 28 Nov 2014 (Local Time) from KDTN Reporting Station
Clear Clear  
Wind Chill: 33°   Ceiling: Unl
Heat Index: 39°   Visibility: 10mi
Dew Point: 33°   Wind: 9mph
Humidity: 79%   Direction: 160°SSE
Pressure: 30.37"   Gusts: NA
Location:  32.8582°N, 93.9626°W
Report Text: KDTN 281353Z 16008KT 10SM CLR 04/01 A3037 RMK AO2 SLP283 T00390006
Loading
Personal Weather Stations






























Interactive Weather Map New forecast layout! Learn more

10-Day Weather Forecast

Advertisements
Track Severe Weather on mobile